Time;durP1;ratioP1;P1;durP2;ratioP2;P2;SDS_P1;SDS_P2;PMS_P1;PMS_P2;Temp;Humidity;BMP_temperature;BMP_pressure;BME280_temperature;BME280_humidity;BME280_pressure;Samples;Min_cycle;Max_cycle;Signal;HPM_P1;HPM_P2
2022/04/15 00:00:39;;;;;;;7.90;2.72;;;14.00;84.30;;;;;;5002314;28;20061;-72
2022/04/15 00:03:06;;;;;;;6.55;2.90;;;14.00;83.80;;;;;;5008404;28;20032;-72
2022/04/15 00:05:36;;;;;;;6.88;2.95;;;14.20;83.50;;;;;;5007056;28;20063;-72
2022/04/15 00:08:13;;;;;;;5.40;2.65;;;14.10;83.80;;;;;;5007292;28;20037;-72
2022/04/15 00:10:41;;;;;;;10.77;3.67;;;14.00;84.30;;;;;;5002114;28;20032;-72
2022/04/15 00:13:11;;;;;;;7.70;3.03;;;14.00;84.50;;;;;;5007875;28;20026;-72
2022/04/15 00:15:38;;;;;;;12.23;3.47;;;13.90;84.60;;;;;;5010999;28;20656;-72
2022/04/15 00:18:04;;;;;;;8.18;2.92;;;14.00;84.60;;;;;;5003386;28;20062;-72
2022/04/15 00:20:30;;;;;;;8.80;3.47;;;14.00;84.70;;;;;;5008457;28;20038;-72
2022/04/15 00:22:58;;;;;;;9.02;3.20;;;13.80;85.10;;;;;;5004040;28;20472;-72
2022/04/15 00:25:24;;;;;;;7.68;3.58;;;13.70;85.80;;;;;;5005057;28;20096;-72
2022/04/15 00:27:50;;;;;;;9.10;3.58;;;13.40;86.70;;;;;;5003914;28;20030;-72
2022/04/15 00:30:15;;;;;;;6.80;2.80;;;13.40;86.30;;;;;;5002961;28;20546;-72
2022/04/15 00:32:41;;;;;;;6.22;2.85;;;13.40;86.10;;;;;;5013593;28;20029;-72
2022/04/15 00:35:08;;;;;;;6.50;3.22;;;13.40;86.00;;;;;;5004639;28;20078;-72
2022/04/15 00:37:33;;;;;;;5.72;2.85;;;13.40;86.20;;;;;;4998686;28;20160;-72
2022/04/15 00:40:02;;;;;;;6.93;3.47;;;13.50;86.40;;;;;;5004618;28;20029;-72
2022/04/15 00:42:31;;;;;;;9.05;3.92;;;13.20;86.90;;;;;;5006053;28;20452;-72
2022/04/15 00:44:58;;;;;;;9.63;3.50;;;13.30;86.90;;;;;;5002532;28;20087;-72
2022/04/15 00:47:55;;;;;;;11.68;4.43;;;13.30;86.80;;;;;;5006737;28;20033;-72
2022/04/15 00:50:23;;;;;;;8.65;3.85;;;13.30;87.10;;;;;;4997737;28;20022;-73
2022/04/15 00:52:50;;;;;;;8.15;3.70;;;13.30;86.70;;;;;;4999654;28;20036;-72
2022/04/15 00:55:18;;;;;;;14.45;3.95;;;13.50;86.40;;;;;;5010717;28;20518;-72
2022/04/15 00:57:49;;;;;;;9.15;3.55;;;13.60;86.00;;;;;;5007031;28;20033;-72
2022/04/15 01:00:16;;;;;;;10.55;3.80;;;13.40;86.50;;;;;;5001624;28;20026;-72
2022/04/15 01:02:43;;;;;;;9.35;3.78;;;13.20;87.10;;;;;;5009004;28;20136;-72
2022/04/15 01:05:10;;;;;;;7.60;3.35;;;13.10;87.60;;;;;;4994958;28;20457;-72
2022/04/15 01:07:38;;;;;;;8.25;3.30;;;13.00;88.00;;;;;;5000174;28;20038;-72
2022/04/15 01:10:06;;;;;;;9.02;3.95;;;13.10;87.90;;;;;;5000664;28;20041;-72
2022/04/15 01:12:35;;;;;;;10.07;4.10;;;13.20;87.40;;;;;;5008664;28;20467;-72
2022/04/15 01:15:07;;;;;;;9.07;3.95;;;13.30;87.20;;;;;;4993919;28;20042;-72
2022/04/15 01:17:35;;;;;;;11.70;3.88;;;13.20;87.60;;;;;;4995111;28;20041;-72
2022/04/15 01:20:03;;;;;;;7.35;3.17;;;13.10;87.80;;;;;;5003985;28;20129;-72
2022/04/15 01:22:59;;;;;;;8.70;3.55;;;13.20;87.70;;;;;;5009807;28;20046;-72
2022/04/15 01:25:25;;;;;;;9.25;4.20;;;13.10;88.00;;;;;;4998700;28;20057;-72
2022/04/15 01:27:50;;;;;;;8.52;3.90;;;13.00;89.00;;;;;;5005761;28;21912;-72
2022/04/15 01:30:19;;;;;;;7.78;4.10;;;13.00;88.50;;;;;;4998797;28;20030;-72
2022/04/15 01:32:46;;;;;;;9.30;3.60;;;13.20;88.30;;;;;;5011613;28;20052;-72
2022/04/15 01:35:13;;;;;;;10.45;4.30;;;13.30;87.90;;;;;;4994447;28;20038;-72
2022/04/15 01:37:39;;;;;;;7.93;3.35;;;13.40;87.50;;;;;;5002539;28;20038;-72
2022/04/15 01:40:07;;;;;;;8.73;3.63;;;13.30;87.50;;;;;;5005360;28;20422;-72
2022/04/15 01:42:34;;;;;;;10.57;4.13;;;13.30;87.50;;;;;;5001003;28;20116;-72
2022/04/15 01:45:00;;;;;;;9.55;4.03;;;13.10;87.90;;;;;;5009292;28;20042;-72
2022/04/15 01:47:25;;;;;;;7.38;4.13;;;12.90;88.50;;;;;;5006450;28;20678;-72
2022/04/15 01:49:51;;;;;;;9.95;3.28;;;12.70;89.20;;;;;;5008687;28;20108;-72
2022/04/15 01:52:17;;;;;;;8.82;3.75;;;12.50;89.70;;;;;;5006116;28;20420;-72
2022/04/15 01:54:42;;;;;;;9.43;3.40;;;12.50;89.90;;;;;;5003134;28;20053;-72
2022/04/15 01:57:08;;;;;;;10.80;3.88;;;12.50;90.10;;;;;;4999375;28;20058;-72
2022/04/15 01:59:34;;;;;;;7.40;3.00;;;12.60;89.70;;;;;;5007795;28;20468;-72
2022/04/15 02:02:00;;;;;;;9.73;3.72;;;12.80;89.30;;;;;;5000592;28;20023;-72
2022/04/15 02:04:26;;;;;;;9.57;4.65;;;12.70;89.30;;;;;;5008042;28;20508;-72
2022/04/15 02:06:53;;;;;;;8.60;4.20;;;12.70;89.40;;;;;;5002949;28;20030;-72
2022/04/15 02:09:19;;;;;;;9.23;3.75;;;12.90;89.10;;;;;;5003149;28;20038;-72
2022/04/15 02:11:45;;;;;;;11.90;4.05;;;12.70;89.70;;;;;;5002680;28;20436;-72
2022/04/15 02:14:12;;;;;;;9.95;4.70;;;12.70;89.80;;;;;;5006308;28;20079;-72
2022/04/15 02:16:39;;;;;;;7.30;3.70;;;12.70;89.80;;;;;;5009880;28;20498;-72
2022/04/15 02:19:04;;;;;;;8.82;3.05;;;12.90;89.20;;;;;;5008526;28;20080;-72
2022/04/15 02:21:30;;;;;;;6.97;3.50;;;12.80;89.40;;;;;;5000184;28;20053;-73
2022/04/15 02:23:56;;;;;;;10.48;4.10;;;12.70;89.70;;;;;;4998934;28;20109;-73
2022/04/15 02:26:21;;;;;;;21.90;3.88;;;12.50;90.00;;;;;;4999797;28;20030;-73
2022/04/15 02:28:47;;;;;;;12.60;3.92;;;12.50;90.20;;;;;;5006775;28;20208;-73
2022/04/15 02:31:13;;;;;;;9.27;3.95;;;12.50;90.20;;;;;;5003843;28;20388;-73
2022/04/15 02:33:38;;;;;;;12.10;3.53;;;12.50;90.20;;;;;;5005823;28;20480;-73
2022/04/15 02:36:04;;;;;;;9.15;3.75;;;12.60;90.20;;;;;;5007536;28;20026;-73
2022/04/15 02:38:30;;;;;;;8.77;3.90;;;12.50;90.20;;;;;;5009639;28;20026;-73
2022/04/15 02:40:56;;;;;;;9.68;4.28;;;12.50;90.50;;;;;;5000635;28;20021;-73
2022/04/15 02:43:25;;;;;;;9.20;4.20;;;12.50;90.50;;;;;;5004212;28;20125;-73
2022/04/15 02:45:51;;;;;;;11.23;3.90;;;12.40;90.60;;;;;;4999956;28;20069;-73
2022/04/15 02:48:17;;;;;;;9.93;4.60;;;12.50;90.60;;;;;;4998686;28;20527;-73
2022/04/15 02:50:45;;;;;;;13.07;4.35;;;12.40;90.70;;;;;;5005660;28;20034;-73
2022/04/15 02:53:11;;;;;;;10.57;3.85;;;12.20;90.90;;;;;;4996167;28;20041;-73
2022/04/15 02:55:37;;;;;;;8.60;3.63;;;12.10;91.00;;;;;;4997824;28;20073;-73
2022/04/15 02:58:02;;;;;;;10.00;4.25;;;12.00;91.30;;;;;;5006239;28;20069;-73
2022/04/15 03:00:28;;;;;;;9.63;3.53;;;11.90;91.50;;;;;;4994097;28;20029;-73
2022/04/15 03:02:54;;;;;;;7.32;3.97;;;11.90;91.70;;;;;;5005884;28;20168;-73
2022/04/15 03:05:20;;;;;;;9.43;3.50;;;11.90;91.70;;;;;;4996909;28;20072;-73
2022/04/15 03:07:45;;;;;;;12.98;4.22;;;12.00;91.60;;;;;;4999525;28;20093;-73
2022/04/15 03:10:11;;;;;;;11.43;4.35;;;12.10;91.50;;;;;;5001483;28;20085;-73
2022/04/15 03:12:38;;;;;;;11.18;4.07;;;12.00;91.60;;;;;;4993979;28;20334;-73
2022/04/15 03:15:05;;;;;;;7.55;4.25;;;12.10;91.60;;;;;;5001788;28;20037;-73
2022/04/15 03:17:32;;;;;;;9.10;4.32;;;12.20;91.40;;;;;;4993291;28;20034;-73
2022/04/15 03:19:58;;;;;;;12.38;4.60;;;12.30;91.30;;;;;;4997060;28;20038;-73
2022/04/15 03:22:23;;;;;;;13.65;4.85;;;12.40;91.30;;;;;;4996272;28;20038;-73
2022/04/15 03:24:52;;;;;;;9.35;4.43;;;12.30;91.20;;;;;;5000893;28;20022;-73
2022/04/15 03:27:17;;;;;;;8.55;3.22;;;12.30;91.30;;;;;;4999917;28;20034;-73
2022/04/15 03:29:43;;;;;;;8.15;3.97;;;12.10;91.50;;;;;;4997716;28;20030;-73
2022/04/15 03:32:09;;;;;;;7.22;3.20;;;12.10;91.60;;;;;;4994376;28;20485;-73
2022/04/15 03:34:36;;;;;;;9.45;4.50;;;11.90;92.00;;;;;;4996564;28;20050;-73
2022/04/15 03:37:03;;;;;;;8.52;3.83;;;12.00;91.90;;;;;;4999807;28;20034;-73
2022/04/15 03:39:29;;;;;;;9.85;4.50;;;12.00;91.80;;;;;;5001365;28;20038;-73
2022/04/15 03:41:54;;;;;;;10.05;3.65;;;12.10;91.70;;;;;;4994641;28;20427;-73
2022/04/15 03:44:20;;;;;;;7.97;3.63;;;12.10;91.80;;;;;;4998968;28;20114;-73
2022/04/15 03:46:46;;;;;;;8.57;3.47;;;12.00;91.80;;;;;;4995074;28;20122;-73
2022/04/15 03:49:11;;;;;;;6.13;3.30;;;11.70;92.40;;;;;;4998156;28;20033;-73
2022/04/15 03:51:37;;;;;;;7.38;3.90;;;11.70;92.40;;;;;;4994496;28;20034;-73
2022/04/15 03:54:03;;;;;;;8.20;4.05;;;11.70;92.50;;;;;;4997305;28;20563;-73
2022/04/15 03:56:29;;;;;;;8.90;3.63;;;11.80;92.30;;;;;;5001502;28;20072;-73
2022/04/15 03:58:55;;;;;;;8.98;3.22;;;11.80;92.40;;;;;;5000228;28;20034;-73
2022/04/15 04:01:20;;;;;;;8.43;3.55;;;12.10;92.00;;;;;;4998662;28;20041;-73
2022/04/15 04:03:46;;;;;;;10.25;4.60;;;12.10;92.10;;;;;;5001657;28;20042;-73
2022/04/15 04:06:11;;;;;;;7.95;3.92;;;12.00;92.10;;;;;;5001225;28;20054;-73
2022/04/15 04:08:37;;;;;;;8.07;3.97;;;11.80;92.30;;;;;;4999607;28;20057;-73
2022/04/15 04:11:03;;;;;;;8.10;3.65;;;11.80;92.40;;;;;;5000166;28;21433;-73
2022/04/15 04:13:29;;;;;;;7.07;4.05;;;12.00;92.30;;;;;;4998582;28;20038;-73
2022/04/15 04:15:54;;;;;;;9.88;3.33;;;11.90;92.40;;;;;;4994689;28;20042;-73
2022/04/15 04:18:21;;;;;;;8.13;3.78;;;12.00;92.20;;;;;;5000663;28;20026;-73
2022/04/15 04:20:48;;;;;;;9.48;3.55;;;12.10;92.20;;;;;;5000722;28;20022;-73
2022/04/15 04:23:14;;;;;;;9.32;3.60;;;12.10;92.10;;;;;;4998753;28;20048;-73
2022/04/15 04:25:39;;;;;;;10.25;4.15;;;12.10;92.10;;;;;;5002149;28;20041;-73
2022/04/15 04:28:05;;;;;;;10.35;4.13;;;12.10;91.90;;;;;;5007073;28;20029;-73
2022/04/15 04:30:31;;;;;;;7.72;4.00;;;12.00;92.20;;;;;;5005034;28;20575;-73
2022/04/15 04:32:59;;;;;;;8.02;3.30;;;11.70;92.60;;;;;;5005965;28;20085;-73
2022/04/15 04:35:25;;;;;;;9.23;4.38;;;11.70;92.90;;;;;;4996334;28;20034;-73
2022/04/15 04:37:51;;;;;;;10.25;4.45;;;11.70;93.00;;;;;;5005172;28;20029;-73
2022/04/15 04:40:17;;;;;;;7.30;3.17;;;11.70;93.00;;;;;;4995920;28;20693;-73
2022/04/15 04:42:44;;;;;;;10.82;3.50;;;11.80;92.80;;;;;;4998544;28;20111;-73
2022/04/15 04:45:10;;;;;;;9.35;3.75;;;11.80;92.80;;;;;;4997527;28;20038;-73
2022/04/15 04:47:38;;;;;;;7.93;3.78;;;11.90;92.70;;;;;;4993299;28;20433;-73
2022/04/15 04:50:08;;;;;;;8.75;4.00;;;12.00;92.70;;;;;;4992203;28;20082;-73
2022/04/15 04:52:34;;;;;;;10.93;4.78;;;12.00;92.60;;;;;;5007105;28;20134;-73
2022/04/15 04:54:59;;;;;;;8.38;3.85;;;11.90;92.80;;;;;;5006711;28;20464;-73
2022/04/15 04:57:25;;;;;;;9.30;4.72;;;11.90;93.00;;;;;;5004734;28;20041;-73
2022/04/15 04:59:51;;;;;;;12.65;4.22;;;11.90;93.10;;;;;;5000757;28;20022;-73
2022/04/15 05:02:16;;;;;;;7.75;3.55;;;11.80;93.10;;;;;;5000814;28;20705;-73
2022/04/15 05:04:42;;;;;;;6.38;3.83;;;11.90;93.20;;;;;;5003391;28;20049;-73
2022/04/15 05:07:08;;;;;;;8.50;3.47;;;11.80;93.30;;;;;;5002791;28;20038;-73
2022/04/15 05:09:33;;;;;;;9.10;3.63;;;11.90;93.20;;;;;;5005088;28;20042;-73
2022/04/15 05:11:59;;;;;;;10.68;3.83;;;11.90;93.50;;;;;;4995030;28;20041;-73
2022/04/15 05:14:25;;;;;;;8.85;4.32;;;11.80;93.60;;;;;;4996409;28;20038;-73
2022/04/15 05:16:50;;;;;;;8.75;4.03;;;11.90;93.60;;;;;;5000497;28;20038;-73
2022/04/15 05:19:16;;;;;;;11.18;4.35;;;11.90;93.90;;;;;;4997572;28;20041;-73
2022/04/15 05:21:41;;;;;;;8.13;3.45;;;11.80;94.00;;;;;;5002567;28;20033;-73
2022/04/15 05:24:09;;;;;;;6.80;3.60;;;11.80;93.60;;;;;;4996676;28;20133;-73
2022/04/15 05:26:36;;;;;;;8.18;3.83;;;11.90;93.90;;;;;;5000518;28;20030;-73
2022/04/15 05:29:02;;;;;;;7.70;3.88;;;11.90;94.20;;;;;;5005926;28;20168;-73
2022/04/15 05:31:28;;;;;;;5.80;3.00;;;11.80;94.20;;;;;;5002615;28;20113;-73
2022/04/15 05:33:54;;;;;;;8.20;3.42;;;11.90;93.80;;;;;;5002429;28;21127;-73
2022/04/15 05:36:20;;;;;;;9.18;3.88;;;11.80;94.00;;;;;;5009523;28;20034;-74
2022/04/15 05:38:45;;;;;;;5.60;3.05;;;11.80;94.10;;;;;;4999263;28;20050;-73
2022/04/15 05:41:11;;;;;;;7.40;4.50;;;11.70;94.30;;;;;;4998085;28;20030;-74
2022/04/15 05:43:37;;;;;;;9.43;3.22;;;11.70;94.20;;;;;;4999408;28;20436;-74
2022/04/15 05:46:03;;;;;;;8.95;4.03;;;11.80;94.10;;;;;;4996381;28;20030;-74
2022/04/15 05:48:29;;;;;;;8.93;3.80;;;11.90;94.10;;;;;;4995944;28;20072;-73
2022/04/15 05:50:55;;;;;;;6.43;4.05;;;12.00;94.10;;;;;;5001456;28;20121;-73
2022/04/15 05:53:21;;;;;;;8.02;3.70;;;12.10;93.80;;;;;;5003207;28;20465;-72
2022/04/15 05:55:46;;;;;;;12.32;5.15;;;12.10;94.00;;;;;;4999111;28;20508;-73
2022/04/15 05:58:12;;;;;;;9.68;3.92;;;12.10;94.00;;;;;;4978437;28;20038;-73
2022/04/15 06:00:38;;;;;;;9.25;4.43;;;12.20;94.20;;;;;;4979163;28;20172;-73
2022/04/15 06:03:07;;;;;;;7.53;4.25;;;12.30;93.60;;;;;;4993492;28;20030;-73
2022/04/15 06:05:32;;;;;;;8.43;3.60;;;12.40;93.60;;;;;;4999665;28;20100;-72
2022/04/15 06:07:58;;;;;;;8.65;3.88;;;12.40;93.40;;;;;;5002449;28;20054;-72
2022/04/15 06:10:24;;;;;;;10.05;3.65;;;12.40;93.60;;;;;;5001889;28;20436;-73
2022/04/15 06:13:02;;;;;;;7.95;3.33;;;12.40;94.00;;;;;;4998237;28;20050;-72
2022/04/15 06:15:30;;;;;;;10.43;4.28;;;12.40;94.30;;;;;;4987074;28;20038;-73
2022/04/15 06:18:00;;;;;;;7.93;3.50;;;12.40;94.30;;;;;;4988396;28;20025;-72
2022/04/15 06:20:27;;;;;;;8.65;3.40;;;12.50;94.30;;;;;;4999403;28;20037;-73
2022/04/15 06:22:53;;;;;;;7.82;3.50;;;12.60;94.00;;;;;;5000194;28;20086;-73
2022/04/15 06:25:19;;;;;;;13.85;7.75;;;12.80;93.60;;;;;;4994707;28;20030;-72
2022/04/15 06:27:45;;;;;;;14.70;9.15;;;12.80;94.00;;;;;;5003070;28;20455;-72
2022/04/15 06:30:11;;;;;;;10.55;5.97;;;12.80;93.90;;;;;;4995160;28;20531;-73
2022/04/15 06:32:37;;;;;;;15.85;8.00;;;12.90;93.20;;;;;;4997220;28;20040;-72
2022/04/15 06:35:07;;;;;;;21.52;9.38;;;12.90;93.30;;;;;;4995143;28;20176;-73
2022/04/15 06:37:32;;;;;;;11.40;4.38;;;13.00;93.00;;;;;;4995452;28;20041;-73
2022/04/15 06:39:58;;;;;;;7.32;4.22;;;13.20;92.70;;;;;;4997376;28;20326;-73
2022/04/15 06:42:27;;;;;;;9.57;3.80;;;13.50;93.00;;;;;;4994430;28;20069;-72
2022/04/15 06:44:53;;;;;;;15.63;4.93;;;14.10;92.80;;;;;;5001090;28;20532;-73
2022/04/15 06:47:18;;;;;;;14.15;6.13;;;15.00;92.00;;;;;;4995810;28;20034;-73
2022/04/15 06:49:45;;;;;;;22.70;8.00;;;16.00;91.20;;;;;;5000657;28;20102;-73
2022/04/15 06:52:12;;;;;;;23.80;6.13;;;17.00;89.20;;;;;;4999303;28;20034;-73
2022/04/15 06:54:38;;;;;;;13.20;5.03;;;17.90;85.30;;;;;;4993900;28;20093;-73
2022/04/15 06:57:04;;;;;;;11.35;5.10;;;19.00;83.10;;;;;;4999376;28;20172;-73
2022/04/15 06:59:29;;;;;;;7.72;3.83;;;20.50;79.70;;;;;;5000922;28;20488;-73
2022/04/15 07:01:56;;;;;;;9.80;4.10;;;21.30;78.00;;;;;;4995298;28;20044;-73
2022/04/15 07:04:23;;;;;;;8.95;3.78;;;21.60;77.70;;;;;;4988067;28;20056;-73
2022/04/15 07:06:49;;;;;;;10.18;4.97;;;21.70;77.60;;;;;;4982665;28;20493;-73
2022/04/15 07:09:15;;;;;;;10.40;5.68;;;21.30;77.50;;;;;;4991736;28;20049;-73
2022/04/15 07:11:41;;;;;;;7.50;3.83;;;21.70;77.70;;;;;;4986571;28;20038;-73
2022/04/15 07:14:06;;;;;;;9.05;4.07;;;21.70;77.30;;;;;;4982130;28;20062;-73
2022/04/15 07:16:34;;;;;;;8.02;3.70;;;21.60;76.20;;;;;;4993748;28;20109;-73
2022/04/15 07:19:04;;;;;;;11.32;3.58;;;22.30;75.50;;;;;;5003113;28;20053;-73
2022/04/15 07:21:30;;;;;;;7.78;3.13;;;21.90;74.90;;;;;;5000332;28;20069;-73
2022/04/15 07:23:56;;;;;;;8.55;4.43;;;22.80;73.40;;;;;;4990689;28;20121;-73
2022/04/15 07:26:22;;;;;;;8.07;3.53;;;23.10;73.00;;;;;;4987808;28;20026;-73
2022/04/15 07:28:48;;;;;;;6.65;3.13;;;22.90;73.20;;;;;;4993890;28;20046;-73
2022/04/15 07:31:13;;;;;;;10.70;3.15;;;22.10;73.30;;;;;;4996844;28;20035;-73
2022/04/15 07:33:39;;;;;;;9.05;3.60;;;19.30;77.60;;;;;;5002143;28;20026;-73
2022/04/15 07:36:31;;;;;;;11.60;3.42;;;17.30;81.80;;;;;;5002830;28;20033;-73
2022/04/15 07:38:50;;;;;;;9.80;3.35;;;16.20;84.60;;;;;;4997227;28;20061;-73
2022/04/15 07:41:16;;;;;;;7.00;3.78;;;15.70;86.10;;;;;;4992709;28;20038;-73
2022/04/15 07:43:42;;;;;;;7.80;3.38;;;15.60;87.70;;;;;;4985164;28;20114;-73
2022/04/15 07:46:08;;;;;;;10.38;3.10;;;15.40;88.90;;;;;;4979438;28;20049;-73
2022/04/15 07:48:34;;;;;;;5.85;2.90;;;15.30;88.60;;;;;;4992968;28;20034;-73
2022/04/15 07:50:59;;;;;;;8.85;3.88;;;15.20;88.60;;;;;;5003352;28;20121;-73
2022/04/15 07:53:25;;;;;;;7.38;3.30;;;15.10;87.10;;;;;;4985563;28;20132;-73
2022/04/15 07:55:51;;;;;;;8.60;3.33;;;15.10;87.40;;;;;;4982480;28;20456;-73
2022/04/15 07:58:18;;;;;;;7.15;3.55;;;15.40;88.30;;;;;;4995331;28;20041;-73
2022/04/15 08:00:44;;;;;;;7.78;3.50;;;15.50;87.90;;;;;;4994731;28;20028;-72
2022/04/15 08:03:09;;;;;;;6.78;3.10;;;15.50;87.20;;;;;;5000317;28;20030;-73
2022/04/15 08:05:35;;;;;;;5.55;3.58;;;15.60;86.80;;;;;;5001513;28;20133;-73
2022/04/15 08:08:01;;;;;;;7.50;3.05;;;15.40;86.20;;;;;;5006213;28;20030;-72
2022/04/15 08:10:26;;;;;;;5.90;3.13;;;15.50;87.40;;;;;;5009232;28;20026;-73
2022/04/15 08:12:52;;;;;;;8.55;3.15;;;15.60;87.70;;;;;;5010114;28;20034;-72
2022/04/15 08:15:18;;;;;;;6.65;3.50;;;15.70;88.90;;;;;;5009858;28;20038;-73
2022/04/15 08:17:43;;;;;;;9.27;3.85;;;15.80;88.40;;;;;;5006329;28;20037;-72
2022/04/15 08:20:09;;;;;;;6.40;3.13;;;15.90;89.30;;;;;;5009660;28;20034;-73
2022/04/15 08:22:36;;;;;;;8.10;3.70;;;16.00;88.00;;;;;;5001187;28;20064;-73
2022/04/15 08:25:04;;;;;;;9.18;3.42;;;16.00;87.50;;;;;;4990587;28;20044;-73
2022/04/15 08:27:29;;;;;;;13.20;3.67;;;15.90;87.80;;;;;;4987769;28;20104;-72
2022/04/15 08:29:55;;;;;;;7.25;3.25;;;16.20;89.00;;;;;;4993025;28;20022;-73
2022/04/15 08:32:21;;;;;;;7.47;3.35;;;16.10;87.20;;;;;;5003264;28;20034;-72
2022/04/15 08:34:47;;;;;;;6.40;3.50;;;16.20;88.40;;;;;;5008791;28;20369;-73
2022/04/15 08:37:13;;;;;;;6.03;3.63;;;16.20;87.30;;;;;;5007922;28;20048;-73
2022/04/15 08:39:39;;;;;;;6.28;3.10;;;16.30;86.50;;;;;;5004836;28;20590;-73
2022/04/15 08:42:09;;;;;;;12.27;3.75;;;16.30;86.40;;;;;;5009046;28;20080;-73
2022/04/15 08:44:35;;;;;;;10.70;3.30;;;17.70;85.00;;;;;;5009138;28;20042;-72
2022/04/15 08:47:03;;;;;;;9.75;3.60;;;20.10;80.50;;;;;;5000289;28;20049;-73
2022/04/15 08:49:29;;;;;;;8.30;3.65;;;20.50;78.60;;;;;;5000317;28;20092;-73
2022/04/15 08:51:55;;;;;;;6.18;3.65;;;21.10;78.80;;;;;;5008547;28;20036;-73
2022/04/15 08:54:21;;;;;;;8.27;3.28;;;21.00;77.50;;;;;;5004592;28;20041;-73
2022/04/15 08:56:47;;;;;;;9.65;3.28;;;21.70;77.10;;;;;;5006245;28;20026;-73
2022/04/15 08:59:16;;;;;;;9.75;3.17;;;21.90;77.00;;;;;;5008432;28;20037;-73
2022/04/15 09:01:42;;;;;;;10.10;3.70;;;22.30;75.40;;;;;;5009080;28;20060;-73
2022/04/15 09:04:08;;;;;;;6.85;3.13;;;22.30;76.80;;;;;;5007031;28;20060;-73
2022/04/15 09:06:34;;;;;;;9.02;3.75;;;22.60;74.80;;;;;;5007367;28;20061;-73
2022/04/15 09:09:11;;;;;;;10.57;3.58;;;22.20;76.20;;;;;;4990330;28;20560;-73
2022/04/15 09:11:38;;;;;;;7.70;3.50;;;22.40;76.20;;;;;;4994375;28;20045;-72
2022/04/15 09:14:10;;;;;;;5.55;3.13;;;22.10;76.00;;;;;;4985639;28;20046;-73
2022/04/15 09:16:43;;;;;;;11.35;3.72;;;21.60;75.70;;;;;;4996415;28;20091;-73
2022/04/15 09:19:10;;;;;;;6.18;3.30;;;21.60;74.40;;;;;;4987364;28;20518;-73
2022/04/15 09:21:37;;;;;;;7.78;3.15;;;21.20;74.90;;;;;;4985136;28;20115;-73
2022/04/15 09:24:03;;;;;;;10.23;3.65;;;20.00;78.20;;;;;;4993021;28;20029;-72
2022/04/15 09:26:29;;;;;;;41.60;19.20;;;19.10;78.60;;;;;;5008486;28;20033;-72
2022/04/15 09:28:55;;;;;;;16.95;6.05;;;18.90;79.10;;;;;;4996088;28;20378;-73
2022/04/15 09:31:23;;;;;;;7.22;3.78;;;18.70;80.10;;;;;;5002266;28;20040;-73
2022/04/15 09:34:00;;;;;;;6.53;3.55;;;18.90;79.20;;;;;;5002289;28;20535;-73
2022/04/15 09:36:35;;;;;;;7.25;3.08;;;18.80;80.10;;;;;;4997993;28;20034;-73
2022/04/15 09:39:01;;;;;;;6.78;3.58;;;18.80;80.00;;;;;;5005673;28;20368;-73
2022/04/15 09:41:29;;;;;;;9.00;3.90;;;18.90;80.60;;;;;;5000785;28;20037;-73
2022/04/15 09:43:57;;;;;;;13.88;7.35;;;19.00;80.80;;;;;;5007219;28;20025;-73
2022/04/15 09:46:23;;;;;;;8.88;4.13;;;19.00;79.60;;;;;;5002360;28;20129;-73
2022/04/15 09:49:07;;;;;;;9.52;4.82;;;19.20;79.50;;;;;;4999330;28;20109;-73
2022/04/15 09:51:45;;;;;;;10.35;3.65;;;19.50;78.70;;;;;;5001798;28;20077;-73
2022/04/15 09:54:22;;;;;;;6.20;3.13;;;19.20;76.90;;;;;;4998288;28;20046;-73
2022/04/15 09:56:49;;;;;;;6.55;3.05;;;19.40;78.40;;;;;;5004222;28;20113;-73
2022/04/15 09:59:16;;;;;;;9.18;3.40;;;19.30;78.30;;;;;;4995625;28;20839;-73
2022/04/15 10:01:45;;;;;;;7.00;3.65;;;19.10;78.70;;;;;;5000871;28;20022;-73
2022/04/15 10:04:12;;;;;;;8.05;3.38;;;19.20;77.70;;;;;;4997057;28;21232;-73
2022/04/15 10:06:39;;;;;;;10.02;3.85;;;19.60;78.40;;;;;;5003222;28;20070;-72
2022/04/15 10:09:06;;;;;;;6.95;3.58;;;20.00;77.40;;;;;;4994536;28;20109;-72
2022/04/15 10:11:35;;;;;;;8.20;2.90;;;19.80;77.50;;;;;;4992513;28;20116;-73
2022/04/15 10:14:03;;;;;;;6.68;3.08;;;19.90;77.90;;;;;;4994168;28;20049;-73
2022/04/15 10:16:31;;;;;;;8.57;3.72;;;19.80;77.30;;;;;;4999791;28;20495;-73
2022/04/15 10:19:00;;;;;;;7.68;4.07;;;19.80;76.90;;;;;;5003485;28;20034;-73
2022/04/15 10:21:26;;;;;;;9.70;3.47;;;19.90;77.10;;;;;;5000282;28;20080;-73
2022/04/15 10:23:52;;;;;;;8.55;3.80;;;20.40;77.50;;;;;;4999341;28;20033;-73
2022/04/15 10:26:18;;;;;;;15.70;3.92;;;20.50;76.90;;;;;;4996072;28;20025;-72
2022/04/15 10:28:46;;;;;;;6.95;3.58;;;20.80;77.20;;;;;;5003275;28;20045;-72
2022/04/15 10:31:15;;;;;;;61.65;6.30;;;21.10;76.00;;;;;;5000752;28;20073;-72
2022/04/15 10:33:42;;;;;;;10.30;3.60;;;21.00;77.10;;;;;;5003046;28;20050;-72
2022/04/15 10:36:24;;;;;;;9.38;3.55;;;21.10;77.60;;;;;;4994303;28;20022;-72
2022/04/15 10:39:09;;;;;;;8.90;3.47;;;21.00;76.90;;;;;;4986444;28;20093;-72
2022/04/15 10:41:48;;;;;;;9.65;2.95;;;21.00;76.70;;;;;;4977809;28;20091;-72
2022/04/15 10:44:29;;;;;;;7.85;3.60;;;21.30;78.80;;;;;;4978270;28;20085;-72
2022/04/15 10:47:17;;;;;;;7.75;3.08;;;21.40;76.40;;;;;;4987542;28;20033;-73
2022/04/15 10:50:09;;;;;;;10.07;3.40;;;21.50;76.30;;;;;;4979301;28;21557;-72
2022/04/15 10:52:36;;;;;;;6.18;2.75;;;21.60;75.80;;;;;;4983378;28;20042;-72
2022/04/15 10:55:06;;;;;;;8.20;3.30;;;21.50;76.20;;;;;;4989718;28;20224;-72
2022/04/15 10:57:36;;;;;;;8.20;2.80;;;21.50;75.50;;;;;;4988370;28;20502;-72
2022/04/15 11:03:21;;;;;;;8.45;3.55;;;21.70;77.50;;;;;;5003248;28;20112;-72
2022/04/15 11:05:46;;;;;;;10.18;3.90;;;22.20;75.90;;;;;;5002576;28;20104;-72
2022/04/15 11:08:17;;;;;;;7.38;3.58;;;22.20;74.90;;;;;;4996801;28;20566;-72
2022/04/15 11:10:54;;;;;;;6.03;3.40;;;22.20;74.00;;;;;;5001255;28;20044;-72
2022/04/15 11:13:58;;;;;;;9.20;3.40;;;22.50;75.00;;;;;;5001238;28;20551;-72
2022/04/15 11:16:38;;;;;;;7.30;3.55;;;22.30;73.30;;;;;;4991231;28;20053;-72
2022/04/15 11:19:04;;;;;;;7.22;3.15;;;22.40;74.20;;;;;;4997378;28;20073;-72
2022/04/15 11:21:33;;;;;;;7.15;2.85;;;22.40;74.50;;;;;;4995340;28;20025;-72
2022/04/15 11:24:06;;;;;;;7.38;3.13;;;22.50;74.50;;;;;;4980568;28;20027;-72
2022/04/15 11:26:33;;;;;;;9.48;3.70;;;22.50;74.50;;;;;;4984858;28;20034;-72
2022/04/15 11:29:00;;;;;;;7.45;3.50;;;22.70;73.50;;;;;;4981790;28;20038;-72
2022/04/15 11:31:27;;;;;;;9.35;4.03;;;22.80;74.00;;;;;;4983874;28;20137;-72
2022/04/15 11:33:54;;;;;;;10.35;4.00;;;22.90;73.20;;;;;;4997389;28;20033;-72
2022/04/15 11:36:21;;;;;;;8.00;3.83;;;23.00;73.50;;;;;;4998301;28;20038;-72
2022/04/15 11:38:49;;;;;;;11.45;3.97;;;22.90;73.20;;;;;;5002891;28;20041;-73
2022/04/15 11:41:24;;;;;;;13.13;4.03;;;22.80;75.50;;;;;;4998552;28;20041;-73
2022/04/15 11:44:00;;;;;;;11.23;3.50;;;23.00;75.00;;;;;;5002070;28;20059;-73
2022/04/15 11:46:47;;;;;;;9.55;3.80;;;22.70;73.70;;;;;;4988607;28;20026;-72
2022/04/15 11:49:19;;;;;;;7.00;3.92;;;22.60;74.30;;;;;;5001615;28;20582;-72
2022/04/15 11:51:48;;;;;;;8.48;4.25;;;23.00;74.40;;;;;;5002355;28;20399;-71
2022/04/15 11:54:14;;;;;;;10.10;3.78;;;23.20;74.80;;;;;;4987543;28;20060;-71
2022/04/15 11:56:42;;;;;;;8.00;4.00;;;23.60;75.00;;;;;;5001800;28;20113;-72
2022/04/15 11:59:09;;;;;;;6.93;3.92;;;23.30;73.00;;;;;;5001580;28;20033;-71
2022/04/15 12:01:36;;;;;;;10.68;4.55;;;23.00;73.50;;;;;;5002027;28;20056;-72
2022/04/15 12:04:03;;;;;;;7.35;4.35;;;23.30;73.10;;;;;;4993230;28;20134;-72
2022/04/15 12:06:31;;;;;;;10.18;4.18;;;23.20;74.60;;;;;;4997083;28;20053;-72
2022/04/15 12:08:58;;;;;;;10.23;4.70;;;23.60;74.80;;;;;;4992297;28;20088;-72
2022/04/15 12:11:25;;;;;;;10.32;4.20;;;23.70;72.20;;;;;;4991129;28;20610;-72
2022/04/15 12:13:59;;;;;;;9.05;4.68;;;23.60;72.60;;;;;;4995776;28;20504;-72
2022/04/15 12:16:27;;;;;;;;;;;23.80;72.10;;;;;;4997268;28;20026;-72
2022/04/15 12:18:53;;;;;;;11.30;4.00;;;23.70;71.70;;;;;;4981412;28;19924;-72
2022/04/15 12:21:20;;;;;;;16.92;5.32;;;23.80;72.10;;;;;;4981888;28;20057;-72
2022/04/15 12:24:22;;;;;;;7.72;4.07;;;23.80;73.10;;;;;;4987191;28;20047;-72
2022/04/15 12:26:53;;;;;;;10.40;4.57;;;23.80;71.40;;;;;;4970426;28;20172;-72
2022/04/15 12:32:24;;;;;;;11.10;4.20;;;23.70;71.60;;;;;;5004432;28;20449;-73
2022/04/15 12:34:59;;;;;;;10.57;4.05;;;24.00;70.40;;;;;;5001376;28;20084;-75
2022/04/15 12:37:33;;;;;;;10.73;5.13;;;24.20;72.70;;;;;;4999209;28;20440;-74
2022/04/15 12:40:00;;;;;;;10.32;4.47;;;24.00;70.90;;;;;;4999566;28;20480;-74
2022/04/15 12:42:33;;;;;;;8.75;4.22;;;24.30;70.50;;;;;;5003956;28;20034;-76
2022/04/15 12:45:00;;;;;;;;;;;24.20;70.20;;;;;;5002684;28;20219;-74
2022/04/15 12:47:26;;;;;;;11.25;4.28;;;24.20;70.90;;;;;;5004831;28;20023;-74
2022/04/15 12:49:53;;;;;;;10.48;4.00;;;24.30;71.50;;;;;;5004628;28;20026;-73
2022/04/15 12:52:19;;;;;;;12.82;3.75;;;24.30;71.50;;;;;;4996208;28;20041;-73
2022/04/15 12:55:05;;;;;;;12.75;4.18;;;24.60;71.40;;;;;;4995459;28;20096;-74